createdAt,value
2022-09-15T00:00:42.587Z,100890.78
2022-09-15T00:03:28.495Z,100897.81
2022-09-15T00:06:09.885Z,100890.75
2022-09-15T00:09:07.609Z,100896.91
2022-09-15T00:11:42.546Z,100900.41
2022-09-15T00:14:29.300Z,100900.38
2022-09-15T00:17:07.868Z,100891.59
2022-09-15T00:19:46.397Z,100895.09
2022-09-15T00:22:31.272Z,100884.53
2022-09-15T00:25:18.896Z,100888.91
2022-09-15T00:27:49.722Z,100885.38
2022-09-15T00:30:24.867Z,100891.53
2022-09-15T00:33:00.828Z,100885.38
2022-09-15T00:35:35.394Z,100889.78
2022-09-15T00:38:16.828Z,100881.88
2022-09-15T00:40:59.650Z,100883.63
2022-09-15T00:43:58.617Z,100891.53
2022-09-15T00:46:58.739Z,100888.88
2022-09-15T00:49:40.741Z,100891.53
2022-09-15T00:52:16.012Z,100897.66
2022-09-15T00:55:13.556Z,100892.41
2022-09-15T00:57:50.788Z,100906.47
2022-09-15T01:00:26.719Z,100903.88
2022-09-15T01:03:00.371Z,100902.13
2022-09-15T01:05:33.823Z,100900.38
2022-09-15T01:08:10.533Z,100894.25
2022-09-15T01:10:47.826Z,100895.16
2022-09-15T01:13:18.230Z,100903.94
2022-09-15T01:15:58.195Z,100899.56
2022-09-15T01:18:42.936Z,100886.41
2022-09-15T01:21:27.724Z,100896.06
2022-09-15T01:24:31.503Z,100889.94
2022-09-15T01:27:37.584Z,100894.31
2022-09-15T01:30:10.313Z,100895.19
2022-09-15T01:33:09.683Z,100891.69
2022-09-15T01:35:54.649Z,100899.56
2022-09-15T01:38:31.590Z,100893.41
2022-09-15T01:41:06.728Z,100898.69
2022-09-15T01:43:42.109Z,100896.06
2022-09-15T01:46:17.034Z,100901.31
2022-09-15T01:48:48.418Z,100899.59
2022-09-15T01:51:21.843Z,100901.38
2022-09-15T01:53:55.216Z,100898.75
2022-09-15T01:56:25.722Z,100896.09
2022-09-15T01:58:59.782Z,100900.50
2022-09-15T02:01:40.862Z,100904.91
2022-09-15T02:04:20.554Z,100902.25
2022-09-15T02:06:56.454Z,100894.34
2022-09-15T02:09:39.512Z,100895.22
2022-09-15T02:12:20.831Z,100903.13
2022-09-15T02:15:06.010Z,100897.88
2022-09-15T02:17:42.710Z,100894.34
2022-09-15T02:20:20.941Z,100899.63
2022-09-15T02:22:54.742Z,100903.13
2022-09-15T02:25:32.897Z,100896.97
2022-09-15T02:28:05.839Z,100896.09
2022-09-15T02:30:41.287Z,100898.72
2022-09-15T02:33:17.809Z,100903.13
2022-09-15T02:35:48.419Z,100909.28
2022-09-15T02:38:18.441Z,100904.00
2022-09-15T02:40:49.649Z,100910.16
2022-09-15T02:43:20.974Z,100904.88
2022-09-15T02:45:50.950Z,100910.16
2022-09-15T02:48:25.418Z,100904.88
2022-09-15T02:50:55.213Z,100903.13
2022-09-15T02:53:27.779Z,100904.88
2022-09-15T02:55:58.116Z,100901.38
2022-09-15T02:58:27.926Z,100899.59
2022-09-15T03:00:57.914Z,100900.47
2022-09-15T03:03:30.202Z,100908.38
2022-09-15T03:06:16.737Z,100906.63
2022-09-15T03:08:47.782Z,100916.28
2022-09-15T03:11:18.182Z,100908.38
2022-09-15T03:13:48.074Z,100918.03
2022-09-15T03:16:19.417Z,100919.78
2022-09-15T03:18:52.313Z,100923.31
2022-09-15T03:21:22.380Z,100919.78
2022-09-15T03:23:52.305Z,100916.28
2022-09-15T03:26:22.222Z,100923.31
2022-09-15T03:28:52.026Z,100925.06
2022-09-15T03:31:22.154Z,100918.91
2022-09-15T03:33:56.190Z,100919.78
2022-09-15T03:36:25.969Z,100913.63
2022-09-15T03:38:55.756Z,100918.91
2022-09-15T03:41:25.620Z,100925.03
2022-09-15T03:43:55.367Z,100920.66
2022-09-15T03:46:25.295Z,100925.06
2022-09-15T03:48:57.831Z,100932.94
2022-09-15T03:51:27.630Z,100926.78
2022-09-15T03:53:58.955Z,100930.31
2022-09-15T03:56:31.658Z,100922.41
2022-09-15T03:59:02.407Z,100927.69
2022-09-15T04:01:33.622Z,100931.19
2022-09-15T04:04:07.010Z,100934.72
2022-09-15T04:06:37.138Z,100932.97
2022-09-15T04:09:07.841Z,100925.03
2022-09-15T04:11:37.863Z,100932.06
2022-09-15T04:14:07.796Z,100929.44
2022-09-15T04:16:37.473Z,100927.69
2022-09-15T04:19:09.802Z,100929.47
2022-09-15T04:21:39.660Z,100931.22
2022-09-15T04:24:09.700Z,100927.72
2022-09-15T04:26:40.191Z,100922.44
2022-09-15T04:29:16.499Z,100923.31
2022-09-15T04:31:46.918Z,100925.97
2022-09-15T04:34:19.224Z,100938.25
2022-09-15T04:36:48.847Z,100933.00
2022-09-15T04:39:19.691Z,100933.88
2022-09-15T04:41:49.437Z,100927.72
2022-09-15T04:44:19.297Z,100933.00
2022-09-15T04:46:48.955Z,100933.00
2022-09-15T04:49:21.342Z,100937.41
2022-09-15T04:51:53.154Z,100935.66
2022-09-15T04:54:23.853Z,100924.22
2022-09-15T04:56:53.718Z,100924.22
2022-09-15T04:59:23.520Z,100926.00
2022-09-15T05:01:57.386Z,100929.50
2022-09-15T05:04:29.966Z,100929.50
2022-09-15T05:06:59.633Z,100918.09
2022-09-15T05:09:31.023Z,100924.22
2022-09-15T05:12:00.872Z,100931.25
2022-09-15T05:14:31.860Z,100923.34
2022-09-15T05:17:01.614Z,100920.72
2022-09-15T05:19:34.271Z,100920.72
2022-09-15T05:22:04.020Z,100926.84
2022-09-15T05:24:34.406Z,100922.47
2022-09-15T05:27:04.115Z,100927.72
2022-09-15T05:29:33.880Z,100924.22
2022-09-15T05:32:03.697Z,100934.75
2022-09-15T05:34:36.357Z,100936.50
2022-09-15T05:37:06.546Z,100932.09
2022-09-15T05:39:36.170Z,100933.00
2022-09-15T05:42:05.975Z,100935.63
2022-09-15T05:44:35.639Z,100933.88
2022-09-15T05:47:05.409Z,100932.13
2022-09-15T05:49:37.757Z,100940.03
2022-09-15T05:52:07.733Z,100939.16
2022-09-15T05:54:38.303Z,100942.69
2022-09-15T05:57:08.221Z,100945.31
2022-09-15T05:59:39.356Z,100943.56
2022-09-15T06:02:09.502Z,100941.81
2022-09-15T06:04:41.898Z,100940.06
2022-09-15T06:07:11.674Z,100943.56
2022-09-15T06:09:42.513Z,100943.59
2022-09-15T06:12:12.475Z,100950.63
2022-09-15T06:14:44.561Z,100948.84
2022-09-15T06:17:14.411Z,100949.75
2022-09-15T06:19:46.582Z,100948.88
2022-09-15T06:22:16.461Z,100947.97
2022-09-15T06:24:46.306Z,100962.94
2022-09-15T06:27:16.135Z,100955.91
2022-09-15T06:29:45.832Z,100968.22
2022-09-15T06:32:15.643Z,100962.06
2022-09-15T06:34:47.934Z,100977.00
2022-09-15T06:37:18.205Z,100973.53
2022-09-15T06:39:47.911Z,100971.75
2022-09-15T06:42:18.378Z,100969.13
2022-09-15T06:44:47.988Z,100974.34
2022-09-15T06:47:18.499Z,100977.88
2022-09-15T06:49:50.893Z,100972.56
2022-09-15T06:52:22.008Z,100977.84
2022-09-15T06:54:53.005Z,100975.19
2022-09-15T06:57:22.606Z,100980.44
2022-09-15T06:59:52.182Z,100976.91
2022-09-15T07:02:23.612Z,100987.44
2022-09-15T07:04:56.117Z,100984.78
2022-09-15T07:07:26.322Z,100990.94
2022-09-15T07:09:56.032Z,100995.31
2022-09-15T07:12:26.217Z,100997.06
2022-09-15T07:14:58.827Z,100993.53
2022-09-15T07:17:29.033Z,100992.63
2022-09-15T07:20:02.306Z,100999.66
2022-09-15T07:22:32.209Z,101011.81
2022-09-15T07:25:02.072Z,101006.56
2022-09-15T07:27:35.318Z,101023.34
2022-09-15T07:30:08.722Z,101024.22
2022-09-15T07:32:38.647Z,101033.94
2022-09-15T07:35:12.139Z,101033.06
2022-09-15T07:37:41.522Z,101029.59
2022-09-15T07:40:12.338Z,101036.66
2022-09-15T07:42:45.139Z,101031.38
2022-09-15T07:45:15.618Z,101032.25
2022-09-15T07:47:45.851Z,101033.13
2022-09-15T07:50:18.696Z,101040.19
2022-09-15T07:52:48.312Z,101043.63
2022-09-15T07:55:21.124Z,101047.13
2022-09-15T07:57:51.004Z,101047.94
2022-09-15T08:00:22.232Z,101050.59
2022-09-15T08:02:52.157Z,101046.81
2022-09-15T08:05:28.144Z,101056.47
2022-09-15T08:07:58.552Z,101051.34
2022-09-15T08:10:28.890Z,101055.44
2022-09-15T08:12:59.192Z,101064.03
2022-09-15T08:15:29.894Z,101063.72
2022-09-15T08:17:59.751Z,101072.41
2022-09-15T08:20:32.325Z,101079.66
2022-09-15T08:23:02.390Z,101086.94
2022-09-15T08:25:33.269Z,101098.66
2022-09-15T08:28:03.326Z,101104.13
2022-09-15T08:30:33.514Z,101110.47
2022-09-15T08:33:03.376Z,101114.94
2022-09-15T08:35:36.950Z,101112.31
2022-09-15T08:38:06.360Z,101112.31
2022-09-15T08:40:40.134Z,101121.97
2022-09-15T08:43:21.841Z,101124.66
2022-09-15T08:45:57.477Z,101122.75
2022-09-15T08:48:32.642Z,101123.50
2022-09-15T08:51:15.582Z,101132.41
2022-09-15T08:53:48.731Z,101131.50
2022-09-15T08:56:22.079Z,101128.78
2022-09-15T08:58:52.267Z,101125.09
2022-09-15T09:01:38.845Z,101117.09
2022-09-15T09:04:41.134Z,101110.06
2022-09-15T09:07:26.119Z,101115.38
2022-09-15T09:10:05.258Z,101118.88
2022-09-15T09:12:52.666Z,101115.44
2022-09-15T09:15:42.601Z,101123.16
2022-09-15T09:18:42.025Z,101118.88
2022-09-15T09:21:22.280Z,101115.31
2022-09-15T09:24:06.687Z,101119.69
2022-09-15T09:26:39.981Z,101124.84
2022-09-15T09:29:18.734Z,101110.56
2022-09-15T09:31:56.189Z,101120.22
2022-09-15T09:34:32.143Z,101116.69
2022-09-15T09:37:14.296Z,101118.38
2022-09-15T09:39:47.844Z,101115.56
2022-09-15T09:42:21.060Z,101111.22
2022-09-15T09:44:51.161Z,101110.19
2022-09-15T09:47:22.405Z,101112.66
2022-09-15T09:49:52.930Z,101109.81
2022-09-15T09:52:36.986Z,101105.06
2022-09-15T09:55:25.079Z,101105.06
2022-09-15T09:57:56.005Z,101105.03
2022-09-15T10:00:38.291Z,101110.28
2022-09-15T10:03:15.146Z,101113.19
2022-09-15T10:05:49.421Z,101110.53
2022-09-15T10:08:21.217Z,101114.81
2022-09-15T10:10:59.648Z,101116.34
2022-09-15T10:13:29.638Z,101110.91
2022-09-15T10:16:05.834Z,101108.88
2022-09-15T10:18:39.736Z,101110.56
2022-09-15T10:21:12.718Z,101107.91
2022-09-15T10:23:44.028Z,101102.44
2022-09-15T10:26:35.046Z,101100.03
2022-09-15T10:29:16.883Z,101103.47
2022-09-15T10:31:48.064Z,101102.59
2022-09-15T10:34:33.193Z,101107.03
2022-09-15T10:37:11.717Z,101109.28
2022-09-15T10:39:53.557Z,101105.47
2022-09-15T10:42:40.670Z,101100.16
2022-09-15T10:45:20.609Z,101109.34
2022-09-15T10:48:22.073Z,101107.56
2022-09-15T10:50:59.530Z,101114.69
2022-09-15T10:53:45.193Z,101112.28
2022-09-15T10:56:27.285Z,101113.13
2022-09-15T10:59:17.398Z,101114.69
2022-09-15T11:02:01.645Z,101116.56
2022-09-15T11:04:56.547Z,101116.94
2022-09-15T11:07:34.466Z,101115.19
2022-09-15T11:10:15.995Z,101126.72
2022-09-15T11:13:02.479Z,101125.03
2022-09-15T11:15:57.678Z,101136.75
2022-09-15T11:18:42.445Z,101129.47
2022-09-15T11:21:24.900Z,101133.19
2022-09-15T11:24:06.130Z,101130.22
2022-09-15T11:26:44.193Z,101133.81
2022-09-15T11:29:18.960Z,101132.16
2022-09-15T11:31:56.995Z,101142.94
2022-09-15T11:34:31.086Z,101141.19
2022-09-15T11:37:07.365Z,101136.63
2022-09-15T11:39:42.626Z,101133.78
2022-09-15T11:42:17.523Z,101138.09
2022-09-15T11:44:49.898Z,101139.81
2022-09-15T11:47:31.342Z,101142.88
2022-09-15T11:50:06.306Z,101142.13
2022-09-15T11:52:50.934Z,101149.13
2022-09-15T11:55:29.955Z,101154.53
2022-09-15T11:58:16.397Z,101140.28
2022-09-15T12:00:57.909Z,101136.69
2022-09-15T12:03:37.743Z,101144.25
2022-09-15T12:06:17.286Z,101146.81
2022-09-15T12:08:54.903Z,101138.03
2022-09-15T12:11:28.437Z,101142.09
2022-09-15T12:13:59.686Z,101142.34
2022-09-15T12:16:31.099Z,101140.56
2022-09-15T12:19:09.892Z,101139.75
2022-09-15T12:21:48.612Z,101136.88
2022-09-15T12:24:26.421Z,101141.84
2022-09-15T12:26:56.638Z,101141.03
2022-09-15T12:29:36.900Z,101144.81
2022-09-15T12:32:36.411Z,101128.47
2022-09-15T12:35:33.371Z,101144.91
2022-09-15T12:38:06.151Z,101132.03
2022-09-15T12:40:38.920Z,101146.53
2022-09-15T12:43:23.351Z,101156.69
2022-09-15T12:45:59.810Z,101159.72
2022-09-15T12:48:32.022Z,101161.69
2022-09-15T12:51:05.125Z,101176.28
2022-09-15T12:53:41.643Z,101174.44
2022-09-15T12:56:24.811Z,101170.13
2022-09-15T12:59:01.308Z,101176.38
2022-09-15T13:01:53.874Z,101172.06
2022-09-15T13:04:57.694Z,101173.75
2022-09-15T13:08:05.350Z,101169.31
2022-09-15T13:10:41.704Z,101182.72
2022-09-15T13:13:23.805Z,101181.00
2022-09-15T13:15:57.772Z,101182.88
2022-09-15T13:18:32.663Z,101183.56
2022-09-15T13:21:08.922Z,101194.31
2022-09-15T13:23:46.215Z,101187.41
2022-09-15T13:26:24.901Z,101182.25
2022-09-15T13:28:58.984Z,101183.06
2022-09-15T13:31:39.044Z,101182.31
2022-09-15T13:38:16.872Z,101175.22
2022-09-15T13:41:33.249Z,101181.22
2022-09-15T13:44:21.334Z,101170.66
2022-09-15T13:47:07.376Z,101174.13
2022-09-15T13:49:54.403Z,101169.66
2022-09-15T13:52:46.005Z,101169.47
2022-09-15T13:55:29.147Z,101174.91
2022-09-15T14:01:08.017Z,101174.81
2022-09-15T14:03:45.023Z,101162.38
2022-09-15T14:06:22.475Z,101164.22
2022-09-15T14:08:56.534Z,101169.50
2022-09-15T14:11:31.233Z,101180.19
2022-09-15T14:14:04.387Z,101175.03
2022-09-15T14:16:39.395Z,101171.50
2022-09-15T14:19:33.580Z,101163.69
2022-09-15T14:22:03.955Z,101172.66
2022-09-15T14:24:35.407Z,101176.19
2022-09-15T14:27:14.426Z,101183.34
2022-09-15T14:29:48.481Z,101198.44
2022-09-15T14:32:21.650Z,101188.00
2022-09-15T14:34:51.869Z,101191.56
2022-09-15T14:37:24.563Z,101180.09
2022-09-15T14:39:56.726Z,101184.50
2022-09-15T14:42:31.437Z,101187.13
2022-09-15T14:48:11.045Z,101172.00
2022-09-15T14:51:01.229Z,101172.00
2022-09-15T14:53:35.609Z,101183.47
2022-09-15T14:56:11.689Z,101179.03
2022-09-15T14:58:46.509Z,101179.06
2022-09-15T15:01:23.176Z,101181.75
2022-09-15T15:04:07.036Z,101193.25
2022-09-15T15:06:38.714Z,101198.59
2022-09-15T15:09:13.108Z,101197.72
2022-09-15T15:11:44.205Z,101193.25
2022-09-15T15:14:16.655Z,101195.00
2022-09-15T15:16:54.522Z,101192.34
2022-09-15T15:19:37.911Z,101198.47
2022-09-15T15:22:18.646Z,101193.16
2022-09-15T15:24:51.433Z,101188.72
2022-09-15T15:27:43.458Z,101196.63
2022-09-15T15:30:43.120Z,101198.41
2022-09-15T15:33:21.247Z,101187.75
2022-09-15T15:36:08.294Z,101188.56
2022-09-15T15:38:47.124Z,101190.34
2022-09-15T15:41:26.355Z,101191.31
2022-09-15T15:44:03.925Z,101182.47
2022-09-15T15:46:59.154Z,101194.00
2022-09-15T15:49:31.805Z,101184.25
2022-09-15T15:52:06.074Z,101196.63
2022-09-15T15:54:37.306Z,101201.00
2022-09-15T15:57:25.165Z,101201.97
2022-09-15T16:00:00.820Z,101202.09
2022-09-15T16:02:31.099Z,101214.44
2022-09-15T16:05:01.054Z,101203.91
2022-09-15T16:07:35.106Z,101210.97
2022-09-15T16:10:06.547Z,101197.75
2022-09-15T16:12:46.317Z,101206.59
2022-09-15T16:15:18.880Z,101202.16
2022-09-15T16:17:49.060Z,101209.22
2022-09-15T16:20:19.960Z,101208.38
2022-09-15T16:22:52.230Z,101212.78
2022-09-15T16:25:30.393Z,101219.84
2022-09-15T16:27:59.996Z,101210.16
2022-09-15T16:30:29.873Z,101201.38
2022-09-15T16:32:59.751Z,101213.72
2022-09-15T16:35:43.109Z,101216.38
2022-09-15T16:38:16.681Z,101214.63
2022-09-15T16:40:46.110Z,101209.31
2022-09-15T16:43:17.713Z,101212.84
2022-09-15T16:45:47.818Z,101210.22
2022-09-15T16:48:18.685Z,101211.97
2022-09-15T16:53:47.361Z,101213.72
2022-09-15T16:56:18.319Z,101218.13
2022-09-15T16:58:55.907Z,101219.91
2022-09-15T17:01:29.340Z,101226.09
2022-09-15T17:03:59.534Z,101222.56
2022-09-15T17:06:31.405Z,101236.66
2022-09-15T17:09:04.516Z,101237.56
2022-09-15T17:11:34.666Z,101231.38
2022-09-15T17:14:04.732Z,101234.03
2022-09-15T17:16:36.560Z,101228.75
2022-09-15T17:19:07.550Z,101230.50
2022-09-15T17:21:38.382Z,101228.72
2022-09-15T17:24:12.623Z,101231.38
2022-09-15T17:26:43.517Z,101225.22
2022-09-15T17:29:13.572Z,101236.66
2022-09-15T17:31:44.407Z,101239.28
2022-09-15T17:34:17.056Z,101229.59
2022-09-15T17:36:47.351Z,101231.34
2022-09-15T17:39:21.528Z,101228.69
2022-09-15T17:41:51.567Z,101222.53
2022-09-15T17:44:21.630Z,101223.41
2022-09-15T17:46:51.423Z,101228.66
2022-09-15T17:49:24.603Z,101230.41
2022-09-15T17:51:54.950Z,101228.63
2022-09-15T17:54:28.307Z,101228.63
2022-09-15T17:57:01.171Z,101235.69
2022-09-15T17:59:31.575Z,101227.75
2022-09-15T18:02:02.285Z,101226.88
2022-09-15T18:04:32.549Z,101233.03
2022-09-15T18:09:51.401Z,101219.84
2022-09-15T18:12:24.230Z,101232.13
2022-09-15T18:14:54.488Z,101233.91
2022-09-15T18:17:24.719Z,101226.88
2022-09-15T18:19:54.643Z,101230.38
2022-09-15T18:22:26.045Z,101231.28
2022-09-15T18:25:01.949Z,101230.41
2022-09-15T18:27:32.197Z,101231.28
2022-09-15T18:30:02.477Z,101233.06
2022-09-15T18:32:33.244Z,101234.81
2022-09-15T18:35:03.333Z,101227.75
2022-09-15T18:37:33.038Z,101229.50
2022-09-15T18:40:07.430Z,101226.88
2022-09-15T18:42:37.723Z,101219.81
2022-09-15T18:45:12.326Z,101231.25
2022-09-15T18:47:42.548Z,101232.06
2022-09-15T18:50:14.813Z,101230.31
2022-09-15T18:52:44.625Z,101244.44
2022-09-15T18:55:19.925Z,101241.81
2022-09-15T18:57:50.199Z,101259.41
2022-09-15T19:00:24.613Z,101261.16
2022-09-15T19:02:59.927Z,101262.94
2022-09-15T19:05:30.447Z,101262.91
2022-09-15T19:08:00.562Z,101255.00
2022-09-15T19:10:32.976Z,101254.09
2022-09-15T19:13:05.842Z,101255.00
2022-09-15T19:15:36.544Z,101258.47
2022-09-15T19:18:06.362Z,101257.63
2022-09-15T19:20:35.892Z,101265.53
2022-09-15T19:23:06.559Z,101265.50
2022-09-15T19:25:39.569Z,101267.25
2022-09-15T19:28:09.300Z,101267.22
2022-09-15T19:30:39.309Z,101262.78
2022-09-15T19:33:15.689Z,101262.72
2022-09-15T19:35:46.295Z,101262.69
2022-09-15T19:38:16.118Z,101262.69
2022-09-15T19:40:50.022Z,101263.50
2022-09-15T19:43:20.142Z,101251.16
2022-09-15T19:45:50.553Z,101251.16
2022-09-15T19:48:20.775Z,101255.50
2022-09-15T19:50:51.347Z,101263.41
2022-09-15T19:53:21.945Z,101271.31
2022-09-15T19:55:55.739Z,101255.59
2022-09-15T19:58:30.440Z,101264.53
2022-09-15T20:01:00.961Z,101272.47
2022-09-15T20:03:31.038Z,101263.69
2022-09-15T20:06:00.772Z,101267.22
2022-09-15T20:08:30.584Z,101261.97
2022-09-15T20:11:03.363Z,101267.22
2022-09-15T20:13:33.181Z,101268.09
2022-09-15T20:16:05.562Z,101263.69
2022-09-15T20:18:36.754Z,101261.91
2022-09-15T20:21:10.410Z,101270.66
2022-09-15T20:23:45.802Z,101272.41
2022-09-15T20:26:20.425Z,101274.16
2022-09-15T20:28:50.483Z,101278.53
2022-09-15T20:31:23.338Z,101268.00
2022-09-15T20:33:54.965Z,101272.38
2022-09-15T20:36:28.704Z,101270.63
2022-09-15T20:38:59.062Z,101276.78
2022-09-15T20:41:32.125Z,101263.63
2022-09-15T20:44:02.293Z,101264.56
2022-09-15T20:46:32.290Z,101265.44
2022-09-15T20:49:01.961Z,101264.56
2022-09-15T20:51:33.968Z,101275.97
2022-09-15T20:54:05.748Z,101276.81
2022-09-15T20:56:39.404Z,101274.16
2022-09-15T20:59:10.730Z,101279.38
2022-09-15T21:01:43.552Z,101280.22
2022-09-15T21:04:13.854Z,101277.56
2022-09-15T21:06:43.726Z,101279.34
2022-09-15T21:09:14.224Z,101274.94
2022-09-15T21:11:49.124Z,101283.72
2022-09-15T21:14:23.285Z,101284.63
2022-09-15T21:16:53.847Z,101284.66
2022-09-15T21:19:24.171Z,101283.78
2022-09-15T21:21:55.073Z,101282.88
2022-09-15T21:24:25.059Z,101288.16
2022-09-15T21:27:09.818Z,101289.88
2022-09-15T21:29:39.596Z,101288.97
2022-09-15T21:32:09.623Z,101286.22
2022-09-15T21:34:39.572Z,101298.47
2022-09-15T21:37:09.984Z,101287.84
2022-09-15T21:39:39.699Z,101287.78
2022-09-15T21:42:13.211Z,101287.75
2022-09-15T21:44:42.834Z,101291.25
2022-09-15T21:47:12.526Z,101290.34
2022-09-15T21:49:42.450Z,101283.28
2022-09-15T21:52:12.390Z,101286.72
2022-09-15T21:54:43.401Z,101297.28
2022-09-15T21:57:16.109Z,101288.41
2022-09-15T21:59:45.811Z,101290.91
2022-09-15T22:02:17.349Z,101293.53
2022-09-15T22:04:47.248Z,101283.88
2022-09-15T22:07:19.946Z,101289.13
2022-09-15T22:09:50.315Z,101283.88
2022-09-15T22:12:23.254Z,101294.47
2022-09-15T22:14:53.606Z,101283.03
2022-09-15T22:17:23.873Z,101285.69
2022-09-15T22:19:53.750Z,101282.16
2022-09-15T22:22:23.863Z,101278.59
2022-09-15T22:24:53.648Z,101281.25
2022-09-15T22:27:26.892Z,101277.66
2022-09-15T22:29:57.174Z,101274.13
2022-09-15T22:32:27.436Z,101266.25
2022-09-15T22:34:57.562Z,101268.00
2022-09-15T22:37:30.569Z,101270.63
2022-09-15T22:40:00.322Z,101269.69
2022-09-15T22:42:32.916Z,101264.41
2022-09-15T22:45:02.639Z,101276.66
2022-09-15T22:47:32.459Z,101268.72
2022-09-15T22:50:02.206Z,101269.53
2022-09-15T22:52:31.934Z,101270.34
2022-09-15T22:55:02.069Z,101276.38
2022-09-15T22:57:37.352Z,101264.88
2022-09-15T23:00:07.729Z,101267.44
2022-09-15T23:02:37.774Z,101277.91
2022-09-15T23:05:09.256Z,101275.25
2022-09-15T23:07:39.078Z,101279.56
2022-09-15T23:10:09.323Z,101274.22
2022-09-15T23:12:41.666Z,101276.78
2022-09-15T23:15:12.454Z,101278.50
2022-09-15T23:17:42.420Z,101276.66
2022-09-15T23:20:12.684Z,101271.38
2022-09-15T23:22:42.526Z,101263.38
2022-09-15T23:25:12.929Z,101267.69
2022-09-15T23:27:45.518Z,101260.63
2022-09-15T23:30:16.460Z,101256.16
2022-09-15T23:32:46.069Z,101258.72
2022-09-15T23:35:15.837Z,101259.53
2022-09-15T23:37:45.353Z,101248.06
2022-09-15T23:40:15.386Z,101253.31
2022-09-15T23:42:47.970Z,101255.84
2022-09-15T23:45:18.239Z,101248.75
2022-09-15T23:47:47.854Z,101253.09
2022-09-15T23:50:17.619Z,101251.31
2022-09-15T23:52:47.606Z,101250.47
2022-09-15T23:55:17.783Z,101249.66
2022-09-15T23:57:50.696Z,101254.19
